createdAt,value
2023-03-01T00:02:09.395Z,65.29
2023-03-01T00:04:42.160Z,65.78
2023-03-01T00:07:16.213Z,66.01
2023-03-01T00:09:49.192Z,65.59
2023-03-01T00:12:21.765Z,66.04
2023-03-01T00:14:54.625Z,65.93
2023-03-01T00:17:27.314Z,66.25
2023-03-01T00:20:00.248Z,65.73
2023-03-01T00:22:34.081Z,66.13
2023-03-01T00:25:07.210Z,66.09
2023-03-01T00:27:39.853Z,66.38
2023-03-01T00:30:13.674Z,66.35
2023-03-01T00:32:46.366Z,65.92
2023-03-01T00:35:19.263Z,66.16
2023-03-01T00:37:58.874Z,66.36
2023-03-01T00:40:34.370Z,66.26
2023-03-01T00:43:07.078Z,66.53
2023-03-01T00:45:39.849Z,66.41
2023-03-01T00:48:12.919Z,66.41
2023-03-01T00:50:45.680Z,66.28
2023-03-01T00:53:19.746Z,66.02
2023-03-01T00:55:52.752Z,66.39
2023-03-01T00:58:25.692Z,66.25
2023-03-01T01:00:58.198Z,66.46
2023-03-01T01:03:30.841Z,66.44
2023-03-01T01:06:10.146Z,66.60
2023-03-01T01:08:44.186Z,66.74
2023-03-01T01:11:17.819Z,66.00
2023-03-01T01:13:51.250Z,66.75
2023-03-01T01:16:26.131Z,66.65
2023-03-01T01:18:59.500Z,66.60
2023-03-01T01:21:33.121Z,66.76
2023-03-01T01:24:08.392Z,66.74
2023-03-01T01:26:41.063Z,66.68
2023-03-01T01:29:13.855Z,66.76
2023-03-01T01:31:46.676Z,66.35
2023-03-01T01:34:21.297Z,66.70
2023-03-01T01:36:55.410Z,66.80
2023-03-01T01:39:29.857Z,66.85
2023-03-01T01:42:03.061Z,66.56
2023-03-01T01:44:36.276Z,66.57
2023-03-01T01:47:16.435Z,66.63
2023-03-01T01:49:52.899Z,66.52
2023-03-01T01:52:29.095Z,66.63
2023-03-01T01:55:08.260Z,66.50
2023-03-01T01:57:45.254Z,66.66
2023-03-01T02:00:20.763Z,67.04
2023-03-01T02:02:58.542Z,66.51
2023-03-01T02:05:39.192Z,66.82
2023-03-01T02:08:14.693Z,67.06
2023-03-01T02:10:51.327Z,66.87
2023-03-01T02:13:24.610Z,66.95
2023-03-01T02:15:57.353Z,66.66
2023-03-01T02:18:30.338Z,66.70
2023-03-01T02:21:19.534Z,66.92
2023-03-01T02:23:52.300Z,66.71
2023-03-01T02:26:35.980Z,66.61
2023-03-01T02:29:10.607Z,66.95
2023-03-01T02:31:42.546Z,66.99
2023-03-01T02:34:18.890Z,66.75
2023-03-01T02:36:54.536Z,66.65
2023-03-01T02:39:30.980Z,66.83
2023-03-01T02:42:07.324Z,66.73
2023-03-01T02:44:41.341Z,66.93
2023-03-01T02:47:13.995Z,67.14
2023-03-01T02:49:47.564Z,67.41
2023-03-01T02:52:41.171Z,67.20
2023-03-01T02:55:18.593Z,66.59
2023-03-01T02:57:51.615Z,67.18
2023-03-01T03:00:30.715Z,66.85
2023-03-01T03:03:03.913Z,67.07
2023-03-01T03:05:36.720Z,67.26
2023-03-01T03:08:09.575Z,66.80
2023-03-01T03:10:44.053Z,67.22
2023-03-01T03:13:17.768Z,67.37
2023-03-01T03:15:52.417Z,66.98
2023-03-01T03:18:26.817Z,67.28
2023-03-01T03:21:00.154Z,67.30
2023-03-01T03:23:32.904Z,67.70
2023-03-01T03:26:06.457Z,67.05
2023-03-01T03:28:40.825Z,67.39
2023-03-01T03:31:14.864Z,67.49
2023-03-01T03:33:47.561Z,66.91
2023-03-01T03:36:23.488Z,67.27
2023-03-01T03:38:56.144Z,66.99
2023-03-01T03:41:28.890Z,67.12
2023-03-01T03:44:01.598Z,67.59
2023-03-01T03:46:36.587Z,67.13
2023-03-01T03:49:09.307Z,67.50
2023-03-01T03:51:42.270Z,67.09
2023-03-01T03:54:14.930Z,67.57
2023-03-01T03:56:47.680Z,66.99
2023-03-01T03:59:20.370Z,67.77
2023-03-01T04:01:54.448Z,67.58
2023-03-01T04:04:27.128Z,67.20
2023-03-01T04:06:59.960Z,67.10
2023-03-01T04:09:32.570Z,66.92
2023-03-01T04:12:05.552Z,67.54
2023-03-01T04:14:38.584Z,66.73
2023-03-01T04:17:12.549Z,67.36
2023-03-01T04:19:47.298Z,66.92
2023-03-01T04:22:20.375Z,67.09
2023-03-01T04:24:52.986Z,67.45
2023-03-01T04:27:25.735Z,67.49
2023-03-01T04:29:59.186Z,66.87
2023-03-01T04:32:33.349Z,66.98
2023-03-01T04:35:06.597Z,67.08
2023-03-01T04:37:39.514Z,67.32
2023-03-01T04:40:18.047Z,66.78
2023-03-01T04:42:51.290Z,67.35
2023-03-01T04:45:24.305Z,67.43
2023-03-01T04:47:59.288Z,67.57
2023-03-01T04:50:32.130Z,67.07
2023-03-01T04:53:04.733Z,67.44
2023-03-01T04:55:37.434Z,67.51
2023-03-01T04:58:10.612Z,67.36
2023-03-01T05:00:43.349Z,67.62
2023-03-01T05:03:19.101Z,67.44
2023-03-01T05:05:53.648Z,67.53
2023-03-01T05:08:26.439Z,67.31
2023-03-01T05:10:59.097Z,67.00
2023-03-01T05:13:31.808Z,67.05
2023-03-01T05:16:06.191Z,67.76
2023-03-01T05:18:41.147Z,67.62
2023-03-01T05:21:17.350Z,67.53
2023-03-01T05:23:50.804Z,67.09
2023-03-01T05:26:28.924Z,67.42
2023-03-01T05:29:01.956Z,67.12
2023-03-01T05:31:34.548Z,67.47
2023-03-01T05:34:08.633Z,67.03
2023-03-01T05:36:41.400Z,67.16
2023-03-01T05:39:14.130Z,67.67
2023-03-01T05:41:46.855Z,67.36
2023-03-01T05:44:19.540Z,68.02
2023-03-01T05:46:52.347Z,67.34
2023-03-01T05:49:26.923Z,67.99
2023-03-01T05:51:59.674Z,67.78
2023-03-01T05:54:32.959Z,68.07
2023-03-01T05:57:05.616Z,67.75
2023-03-01T05:59:38.594Z,67.44
2023-03-01T06:02:11.143Z,67.38
2023-03-01T06:04:45.358Z,67.82
2023-03-01T06:07:18.088Z,67.46
2023-03-01T06:09:51.054Z,67.03
2023-03-01T06:12:23.685Z,67.49
2023-03-01T06:14:56.336Z,67.78
2023-03-01T06:17:32.737Z,67.79
2023-03-01T06:20:09.773Z,67.40
2023-03-01T06:22:42.845Z,67.54
2023-03-01T06:25:18.747Z,67.26
2023-03-01T06:27:53.211Z,67.69
2023-03-01T06:30:27.775Z,67.87
2023-03-01T06:33:02.337Z,67.53
2023-03-01T06:35:36.648Z,67.88
2023-03-01T06:38:09.653Z,67.86
2023-03-01T06:40:43.382Z,67.94
2023-03-01T06:43:16.208Z,67.77
2023-03-01T06:45:49.016Z,67.85
2023-03-01T06:48:21.728Z,68.37
2023-03-01T06:50:56.192Z,67.31
2023-03-01T06:53:29.287Z,67.47
2023-03-01T06:56:01.922Z,67.89
2023-03-01T06:58:34.649Z,67.75
2023-03-01T07:01:08.384Z,67.62
2023-03-01T07:03:41.098Z,67.43
2023-03-01T07:06:15.748Z,67.50
2023-03-01T07:08:48.442Z,67.62
2023-03-01T07:11:21.465Z,67.64
2023-03-01T07:13:54.242Z,67.13
2023-03-01T07:16:26.996Z,67.54
2023-03-01T07:18:59.912Z,67.66
2023-03-01T07:21:35.072Z,67.15
2023-03-01T07:24:09.457Z,67.36
2023-03-01T07:26:42.353Z,67.10
2023-03-01T07:29:15.057Z,67.55
2023-03-01T07:31:48.219Z,67.57
2023-03-01T07:34:20.992Z,67.45
2023-03-01T07:36:54.991Z,67.52
2023-03-01T07:39:27.742Z,67.49
2023-03-01T07:42:01.388Z,67.61
2023-03-01T07:44:34.503Z,68.03
2023-03-01T07:47:07.328Z,67.39
2023-03-01T07:49:39.856Z,67.56
2023-03-01T07:52:14.246Z,67.82
2023-03-01T07:54:46.916Z,67.26
2023-03-01T07:57:19.822Z,67.86
2023-03-01T07:59:52.584Z,68.18
2023-03-01T08:02:25.421Z,67.57
2023-03-01T08:04:58.352Z,67.65
2023-03-01T08:07:32.381Z,67.86
2023-03-01T08:10:05.855Z,67.75
2023-03-01T08:12:38.668Z,68.12
2023-03-01T08:15:11.746Z,67.82
2023-03-01T08:17:44.555Z,67.79
2023-03-01T08:20:19.730Z,67.10
2023-03-01T08:22:54.138Z,66.95
2023-03-01T08:25:26.871Z,67.17
2023-03-01T08:27:59.784Z,66.84
2023-03-01T08:30:32.661Z,67.00
2023-03-01T08:33:05.211Z,66.67
2023-03-01T08:35:38.002Z,67.32
2023-03-01T08:38:12.314Z,67.46
2023-03-01T08:40:45.072Z,67.28
2023-03-01T08:43:18.622Z,67.03
2023-03-01T08:45:51.285Z,66.42
2023-03-01T08:48:24.215Z,66.50
2023-03-01T08:50:57.190Z,66.26
2023-03-01T08:53:31.394Z,66.71
2023-03-01T08:56:04.465Z,67.24
2023-03-01T08:58:37.618Z,67.09
2023-03-01T09:01:11.667Z,66.99
2023-03-01T09:03:45.235Z,66.60
2023-03-01T09:06:17.997Z,66.91
2023-03-01T09:08:53.338Z,66.56
2023-03-01T09:11:26.425Z,66.51
2023-03-01T09:13:59.759Z,66.47
2023-03-01T09:16:37.167Z,66.54
2023-03-01T09:19:10.143Z,66.68
2023-03-01T09:21:53.261Z,66.68
2023-03-01T09:24:27.428Z,66.52
2023-03-01T09:27:00.268Z,66.42
2023-03-01T09:29:33.047Z,66.64
2023-03-01T09:32:06.172Z,66.50
2023-03-01T09:34:59.234Z,66.50
2023-03-01T09:37:32.501Z,66.67
2023-03-01T09:40:08.826Z,67.30
2023-03-01T09:42:50.585Z,67.95
2023-03-01T09:45:35.048Z,69.15
2023-03-01T09:48:18.825Z,68.93
2023-03-01T09:50:53.255Z,68.73
2023-03-01T09:53:33.649Z,69.59
2023-03-01T09:56:19.972Z,69.16
2023-03-01T09:58:58.280Z,69.24
2023-03-01T10:01:36.187Z,68.38
2023-03-01T10:04:28.487Z,68.93
2023-03-01T10:07:15.254Z,68.62
2023-03-01T10:09:49.394Z,68.54
2023-03-01T10:12:27.445Z,67.82
2023-03-01T10:15:04.737Z,66.96
2023-03-01T10:17:41.533Z,67.22
2023-03-01T10:20:21.655Z,68.77
2023-03-01T10:22:56.434Z,69.02
2023-03-01T10:25:47.374Z,67.53
2023-03-01T10:28:27.875Z,69.01
2023-03-01T10:31:04.516Z,67.31
2023-03-01T10:33:40.754Z,66.84
2023-03-01T10:36:13.429Z,66.69
2023-03-01T10:38:53.301Z,67.62
2023-03-01T10:41:27.861Z,67.54
2023-03-01T10:44:02.044Z,67.43
2023-03-01T10:46:37.101Z,66.93
2023-03-01T10:49:16.506Z,65.88
2023-03-01T10:51:51.993Z,66.74
2023-03-01T10:54:29.843Z,66.09
2023-03-01T10:57:06.953Z,65.24
2023-03-01T10:59:41.152Z,65.37
2023-03-01T11:02:25.726Z,65.65
2023-03-01T11:05:01.064Z,65.25
2023-03-01T11:07:48.888Z,65.58
2023-03-01T11:10:25.070Z,64.15
2023-03-01T11:13:08.961Z,66.29
2023-03-01T11:15:43.953Z,64.75
2023-03-01T11:18:25.098Z,65.28
2023-03-01T11:21:06.052Z,65.75
2023-03-01T11:23:41.634Z,65.54
2023-03-01T11:26:17.225Z,66.20
2023-03-01T11:28:53.891Z,64.47
2023-03-01T11:31:28.993Z,66.02
2023-03-01T11:34:10.042Z,64.96
2023-03-01T11:36:48.811Z,63.84
2023-03-01T11:39:30.926Z,65.02
2023-03-01T11:42:18.385Z,64.45
2023-03-01T11:44:56.387Z,66.86
2023-03-01T11:47:43.876Z,64.94
2023-03-01T11:50:28.334Z,61.67
2023-03-01T11:53:14.062Z,64.18
2023-03-01T11:56:04.626Z,64.01
2023-03-01T11:58:54.141Z,63.18
2023-03-01T12:01:42.696Z,62.78
2023-03-01T12:04:49.722Z,64.46
2023-03-01T12:07:29.692Z,63.62
2023-03-01T12:10:23.969Z,63.84
2023-03-01T12:13:07.968Z,63.83
2023-03-01T12:16:05.882Z,63.94
2023-03-01T12:19:00.945Z,62.86
2023-03-01T12:21:51.828Z,64.50
2023-03-01T12:25:03.486Z,62.47
2023-03-01T12:27:53.239Z,63.88
2023-03-01T12:30:39.898Z,63.49
2023-03-01T12:33:24.338Z,62.35
2023-03-01T12:36:13.463Z,64.47
2023-03-01T12:38:52.475Z,60.19
2023-03-01T12:41:44.669Z,63.80
2023-03-01T12:44:37.532Z,65.61
2023-03-01T12:47:24.908Z,63.80
2023-03-01T12:50:02.285Z,62.48
2023-03-01T12:52:41.165Z,62.60
2023-03-01T12:55:31.095Z,61.65
2023-03-01T12:58:15.509Z,67.34
2023-03-01T13:01:05.266Z,64.56
2023-03-01T13:03:56.954Z,64.43
2023-03-01T13:06:43.274Z,64.36
2023-03-01T13:09:26.944Z,64.11
2023-03-01T13:12:02.909Z,63.47
2023-03-01T13:14:47.796Z,64.67
2023-03-01T13:17:35.543Z,65.67
2023-03-01T13:20:15.821Z,63.48
2023-03-01T13:22:54.576Z,64.32
2023-03-01T13:25:34.676Z,66.30
2023-03-01T13:28:43.023Z,65.05
2023-03-01T13:31:51.699Z,66.92
2023-03-01T13:34:45.707Z,67.25
2023-03-01T13:37:24.356Z,67.18
2023-03-01T13:39:59.973Z,68.82
2023-03-01T13:42:56.141Z,67.62
2023-03-01T13:45:40.292Z,64.58
2023-03-01T13:48:19.900Z,67.26
2023-03-01T13:50:55.025Z,68.97
2023-03-01T13:53:31.834Z,67.85
2023-03-01T13:56:10.573Z,67.32
2023-03-01T13:58:50.941Z,66.80
2023-03-01T14:01:28.354Z,67.48
2023-03-01T14:04:02.724Z,65.81
2023-03-01T14:06:36.679Z,66.80
2023-03-01T14:09:18.629Z,66.54
2023-03-01T14:12:18.378Z,64.45
2023-03-01T14:14:57.328Z,66.86
2023-03-01T14:17:48.760Z,67.14
2023-03-01T14:20:23.466Z,66.24
2023-03-01T14:22:59.420Z,66.99
2023-03-01T14:25:34.752Z,67.33
2023-03-01T14:28:19.936Z,66.63
2023-03-01T14:30:54.595Z,65.54
2023-03-01T14:33:31.309Z,66.41
2023-03-01T14:36:06.991Z,65.51
2023-03-01T14:38:41.633Z,65.65
2023-03-01T14:41:17.147Z,65.72
2023-03-01T14:43:59.209Z,65.94
2023-03-01T14:46:35.737Z,66.17
2023-03-01T14:49:14.899Z,66.76
2023-03-01T14:51:54.061Z,66.04
2023-03-01T14:54:29.634Z,66.62
2023-03-01T14:57:03.220Z,65.58
2023-03-01T14:59:36.474Z,65.55
2023-03-01T15:02:18.094Z,65.96
2023-03-01T15:04:55.276Z,65.86
2023-03-01T15:07:31.529Z,65.67
2023-03-01T15:10:06.259Z,65.48
2023-03-01T15:12:42.461Z,64.52
2023-03-01T15:15:23.623Z,65.21
2023-03-01T15:17:58.845Z,64.96
2023-03-01T15:20:37.069Z,64.76
2023-03-01T15:23:21.474Z,65.11
2023-03-01T15:25:58.320Z,65.03
2023-03-01T15:28:34.168Z,64.12
2023-03-01T15:31:20.273Z,64.47
2023-03-01T15:33:53.981Z,65.10
2023-03-01T15:36:38.934Z,65.04
2023-03-01T15:39:38.334Z,64.92
2023-03-01T15:42:35.303Z,64.79
2023-03-01T15:45:12.627Z,65.77
2023-03-01T15:47:51.206Z,65.17
2023-03-01T15:50:26.553Z,65.35
2023-03-01T15:53:02.925Z,64.49
2023-03-01T15:55:35.665Z,65.38
2023-03-01T15:58:15.456Z,63.91
2023-03-01T16:01:00.762Z,64.17
2023-03-01T16:03:34.390Z,64.38
2023-03-01T16:06:07.198Z,64.81
2023-03-01T16:08:41.992Z,65.54
2023-03-01T16:11:18.311Z,65.13
2023-03-01T16:13:51.117Z,64.41
2023-03-01T16:16:24.029Z,65.21
2023-03-01T16:18:57.029Z,65.36
2023-03-01T16:21:29.885Z,63.82
2023-03-01T16:24:04.786Z,63.89
2023-03-01T16:26:38.795Z,64.02
2023-03-01T16:29:11.698Z,65.24
2023-03-01T16:31:44.528Z,65.65
2023-03-01T16:34:17.740Z,64.65
2023-03-01T16:36:50.453Z,64.03
2023-03-01T16:39:24.621Z,64.73
2023-03-01T16:41:57.388Z,64.19
2023-03-01T16:44:30.210Z,65.03
2023-03-01T16:47:02.925Z,64.20
2023-03-01T16:49:35.743Z,66.14
2023-03-01T16:52:09.520Z,64.82
2023-03-01T16:54:43.660Z,65.01
2023-03-01T16:57:17.256Z,64.30
2023-03-01T16:59:54.221Z,65.56
2023-03-01T17:02:27.255Z,63.91
2023-03-01T17:05:00.154Z,64.33
2023-03-01T17:07:34.182Z,64.47
2023-03-01T17:10:12.751Z,63.92
2023-03-01T17:12:45.407Z,64.77
2023-03-01T17:15:18.289Z,66.01
2023-03-01T17:17:51.990Z,63.10
2023-03-01T17:20:25.513Z,66.03
2023-03-01T17:22:58.705Z,64.92
2023-03-01T17:25:33.441Z,63.99
2023-03-01T17:28:06.348Z,64.27
2023-03-01T17:30:39.099Z,64.23
2023-03-01T17:33:12.371Z,64.49
2023-03-01T17:35:48.563Z,63.76
2023-03-01T17:38:21.352Z,63.93
2023-03-01T17:40:55.537Z,65.20
2023-03-01T17:43:28.969Z,64.09
2023-03-01T17:46:02.562Z,64.96
2023-03-01T17:48:35.378Z,63.47
2023-03-01T17:51:09.870Z,63.51
2023-03-01T17:53:42.800Z,64.86
2023-03-01T17:56:17.495Z,62.17
2023-03-01T17:58:50.328Z,64.27
2023-03-01T18:01:23.567Z,65.88
2023-03-01T18:03:56.329Z,65.39
2023-03-01T18:06:30.491Z,64.96
2023-03-01T18:09:03.752Z,64.28
2023-03-01T18:11:38.105Z,65.71
2023-03-01T18:14:10.912Z,66.80
2023-03-01T18:16:43.725Z,64.53
2023-03-01T18:19:16.468Z,65.38
2023-03-01T18:21:49.325Z,65.88
2023-03-01T18:24:22.078Z,67.28
2023-03-01T18:26:56.367Z,67.71
2023-03-01T18:29:29.322Z,65.20
2023-03-01T18:32:01.862Z,67.09
2023-03-01T18:34:35.048Z,65.74
2023-03-01T18:37:09.816Z,64.63
2023-03-01T18:39:43.038Z,64.65
2023-03-01T18:42:17.195Z,65.89
2023-03-01T18:44:50.460Z,64.54
2023-03-01T18:47:23.240Z,67.08
2023-03-01T18:49:55.981Z,64.82
2023-03-01T18:52:29.134Z,64.56
2023-03-01T18:55:01.871Z,64.15
2023-03-01T18:57:36.177Z,64.35
2023-03-01T19:00:11.602Z,64.92
2023-03-01T19:02:44.409Z,64.72
2023-03-01T19:05:17.638Z,64.41
2023-03-01T19:07:52.298Z,65.01
2023-03-01T19:10:25.920Z,64.19
2023-03-01T19:13:00.120Z,64.50
2023-03-01T19:15:32.872Z,65.90
2023-03-01T19:18:06.027Z,64.93
2023-03-01T19:20:50.590Z,66.10
2023-03-01T19:23:23.506Z,65.56
2023-03-01T19:26:00.263Z,63.98
2023-03-01T19:28:34.517Z,66.06
2023-03-01T19:31:09.319Z,65.00
2023-03-01T19:33:43.149Z,64.47
2023-03-01T19:36:15.898Z,65.42
2023-03-01T19:38:49.515Z,65.03
2023-03-01T19:41:22.671Z,64.93
2023-03-01T19:43:57.422Z,64.70
2023-03-01T19:46:30.638Z,64.16
2023-03-01T19:49:04.577Z,64.46
2023-03-01T19:51:39.328Z,65.65
2023-03-01T19:54:14.913Z,65.03
2023-03-01T19:56:48.018Z,64.55
2023-03-01T19:59:24.577Z,63.95
2023-03-01T20:01:58.777Z,63.90
2023-03-01T20:04:31.875Z,63.71
2023-03-01T20:07:04.996Z,63.74
2023-03-01T20:09:38.067Z,63.23
2023-03-01T20:12:10.780Z,63.74
2023-03-01T20:14:45.123Z,64.33
2023-03-01T20:17:18.111Z,63.78
2023-03-01T20:19:51.152Z,64.15
2023-03-01T20:22:23.889Z,63.83
2023-03-01T20:24:56.637Z,64.13
2023-03-01T20:27:29.682Z,63.99
2023-03-01T20:30:04.152Z,64.04
2023-03-01T20:32:36.975Z,64.43
2023-03-01T20:35:10.782Z,64.08
2023-03-01T20:37:43.565Z,64.15
2023-03-01T20:40:16.767Z,64.11
2023-03-01T20:42:49.626Z,64.15
2023-03-01T20:45:23.838Z,64.29
2023-03-01T20:47:56.492Z,63.70
2023-03-01T20:50:29.218Z,63.94
2023-03-01T20:53:01.865Z,64.05
2023-03-01T20:55:34.941Z,64.13
2023-03-01T20:58:08.047Z,64.06
2023-03-01T21:00:42.197Z,63.92
2023-03-01T21:03:15.027Z,63.98
2023-03-01T21:05:48.033Z,64.26
2023-03-01T21:08:20.826Z,64.86
2023-03-01T21:10:56.279Z,64.63
2023-03-01T21:13:29.837Z,64.21
2023-03-01T21:16:07.885Z,64.19
2023-03-01T21:18:41.369Z,64.39
2023-03-01T21:21:16.038Z,64.36
2023-03-01T21:23:49.126Z,64.53
2023-03-01T21:26:23.695Z,64.50
2023-03-01T21:28:57.688Z,64.37
2023-03-01T21:31:34.867Z,64.46
2023-03-01T21:34:08.170Z,64.50
2023-03-01T21:36:41.016Z,65.45
2023-03-01T21:39:15.751Z,65.02
2023-03-01T21:41:50.902Z,64.66
2023-03-01T21:44:23.953Z,64.62
2023-03-01T21:46:59.101Z,64.58
2023-03-01T21:49:32.106Z,64.54
2023-03-01T21:52:05.026Z,64.57
2023-03-01T21:54:37.954Z,64.77
2023-03-01T21:57:10.838Z,65.15
2023-03-01T21:59:43.680Z,64.76
2023-03-01T22:02:17.858Z,65.19
2023-03-01T22:04:57.250Z,65.15
2023-03-01T22:07:31.932Z,64.98
2023-03-01T22:10:05.119Z,65.20
2023-03-01T22:12:38.485Z,65.17
2023-03-01T22:15:11.481Z,65.15
2023-03-01T22:17:45.678Z,64.75
2023-03-01T22:20:18.971Z,64.97
2023-03-01T22:22:52.315Z,65.12
2023-03-01T22:25:26.568Z,65.13
2023-03-01T22:28:00.232Z,65.12
2023-03-01T22:30:33.230Z,65.05
2023-03-01T22:33:07.716Z,64.80
2023-03-01T22:35:42.967Z,64.50
2023-03-01T22:38:15.964Z,64.94
2023-03-01T22:40:56.409Z,64.68
2023-03-01T22:43:30.782Z,65.06
2023-03-01T22:46:11.493Z,64.56
2023-03-01T22:48:46.842Z,65.21
2023-03-01T22:51:22.745Z,64.82
2023-03-01T22:53:56.297Z,64.78
2023-03-01T22:56:31.903Z,65.00
2023-03-01T22:59:09.845Z,65.76
2023-03-01T23:01:46.477Z,65.64
2023-03-01T23:04:22.779Z,65.08
2023-03-01T23:06:55.738Z,64.97
2023-03-01T23:09:31.505Z,65.04
2023-03-01T23:12:07.357Z,65.94
2023-03-01T23:14:41.691Z,65.48
2023-03-01T23:17:14.698Z,65.42
2023-03-01T23:19:51.413Z,64.52
2023-03-01T23:22:24.616Z,65.63
2023-03-01T23:24:57.570Z,65.05
2023-03-01T23:27:30.584Z,65.38
2023-03-01T23:30:03.778Z,65.59
2023-03-01T23:32:40.528Z,65.14
2023-03-01T23:35:15.449Z,65.59
2023-03-01T23:37:48.620Z,65.33
2023-03-01T23:40:21.882Z,65.13
2023-03-01T23:42:54.702Z,64.95
2023-03-01T23:45:27.729Z,64.94
2023-03-01T23:48:00.740Z,65.13
2023-03-01T23:50:41.773Z,64.89
2023-03-01T23:53:17.863Z,65.40
2023-03-01T23:55:53.335Z,64.73
2023-03-01T23:58:28.523Z,65.60
